Time,TemperatureF,DewpointF,PressureIn,WindDirection,WindDirectionDegrees,WindSpeedMPH,WindSpeedGustMPH,Humidity,HourlyPrecipIn,Conditions,Clouds,dailyrainin,SoftwareType,DateUTC
2013-05-25 00:00:00,47.9,33.4,24.07,North,0,0.0,-999.0,57,0.00,,,0.00,,2013-05-25 07:00:00,
2013-05-25 01:00:00,47.2,33.6,24.06,North,0,0.0,-999.0,59,0.00,,,0.00,,2013-05-25 08:00:00,
2013-05-25 02:00:00,46.8,32.8,24.06,North,0,0.0,-999.0,58,0.00,,,0.00,,2013-05-25 09:00:00,
2013-05-25 03:00:00,46.3,31.8,24.05,North,0,0.0,-999.0,57,0.00,,,0.00,,2013-05-25 10:00:00,
2013-05-25 04:00:00,47.0,31.2,24.05,North,0,0.0,-999.0,54,0.00,,,0.00,,2013-05-25 11:00:00,
2013-05-25 05:00:00,46.4,31.1,24.05,North,0,0.0,-999.0,55,0.00,,,0.00,,2013-05-25 12:00:00,
2013-05-25 06:00:00,45.2,30.8,24.05,North,0,0.0,-999.0,57,0.00,,,0.00,,2013-05-25 13:00:00,
2013-05-25 07:05:00,45.4,30.5,24.05,North,0,0.0,-999.0,56,0.00,,,0.00,,2013-05-25 14:05:00,
2013-05-25 08:05:00,48.2,30.4,0.00,North,0,0.0,-999.0,50,0.00,,,0.00,,2013-05-25 15:05:00,
2013-05-25 09:05:00,59.4,35.1,0.00,North,0,0.0,-999.0,40,0.00,,,0.00,,2013-05-25 16:05:00,
2013-05-25 10:05:00,56.5,34.7,0.00,North,0,0.0,-999.0,44,0.00,,,0.00,,2013-05-25 17:05:00,
2013-05-25 11:05:00,56.2,33.8,0.00,North,0,0.0,-999.0,43,0.00,,,0.00,,2013-05-25 18:05:00,
2013-05-25 12:05:00,57.2,34.3,0.00,North,0,0.0,-999.0,42,0.00,,,0.00,,2013-05-25 19:05:00,
2013-05-25 13:05:00,58.9,33.8,0.00,North,0,0.0,-999.0,39,0.00,,,0.00,,2013-05-25 20:05:00,
2013-05-25 14:05:00,59.8,33.9,0.00,North,0,0.0,-999.0,38,0.00,,,0.00,,2013-05-25 21:05:00,
2013-05-25 15:05:00,60.3,33.8,0.00,North,0,0.0,-999.0,37,0.00,,,0.00,,2013-05-25 22:05:00,
2013-05-25 16:05:00,58.7,32.3,0.00,North,0,0.0,-999.0,37,0.00,,,0.00,,2013-05-25 23:05:00,
2013-05-25 17:05:00,58.5,31.4,0.00,North,0,0.0,-999.0,36,0.00,,,0.00,,2013-05-26 00:05:00,
2013-05-25 18:00:00,56.7,32.7,24.08,North,0,0.0,-999.0,40,0.00,,,0.00,,2013-05-26 01:00:00,
2013-05-25 19:00:00,54.2,32.0,24.09,North,0,0.0,-999.0,43,0.00,,,0.00,,2013-05-26 02:00:00,
2013-05-25 20:00:00,51.7,31.4,24.09,North,0,0.0,-999.0,46,0.00,,,0.00,,2013-05-26 03:00:00,
2013-05-25 21:00:00,49.9,31.5,24.11,North,0,0.0,-999.0,49,0.00,,,0.00,,2013-05-26 04:00:00,
2013-05-25 22:00:00,49.1,30.8,24.11,North,0,0.0,-999.0,49,0.00,,,0.00,,2013-05-26 05:00:00,
2013-05-25 23:00:00,49.7,26.3,24.10,North,0,0.0,-999.0,40,0.00,,,0.00,,2013-05-26 06:00:00,